Sullivan, IL

12:22 AM CST on December 10, 2016 (GMT -0600)
West Okaw River Valley | | Change Station

Elev 656 ft 39.60 °N, 88.71 °W | Updated 20 seconds ago

Overcast
Overcast
23.4 °F
Feels Like 23 °F
N
2.0
Wind Variable Wind from WNW
Gusts 4.0 mph

Today
High -- | Low -- °F
--% Chance of Precip.
Yesterday
High -- | Low -- °F
Precip. -- in
Pressure 30.58 in
Visibility 10.0 miles
Clouds Overcast 2100 ft
Windchill 23 °F
Dew Point 18 °F
Humidity 80%
Rainfall 0.00 in
Snow Depth Not available.
7:04 AM 4:30 PM
Waxing Gibbous, 81% visible
METAR KMTO 100553Z AUTO 27005KT 10SM OVC021 M05/M10 A3055 RMK AO2 SLP356 T10501100 11050 21056 410391067 50002
Pressure 30.58 in
Visibility 10.0 miles
Clouds Overcast 2100 ft
Windchill 23 °F
Dew Point 18 °F
Humidity 80%
Rainfall 0.00 in
Snow Depth Not available.
7:04 AM 4:30 PM
Waxing Gibbous, 81% visible
METAR KMTO 100553Z AUTO 27005KT 10SM OVC021 M05/M10 A3055 RMK AO2 SLP356 T10501100 11050 21056 410391067 50002

10-Day Weather Forecast

Almanac

Astronomy

Dec. 10, 2016 Rise Set
Actual Time
Civil Twilight
Nautical Twilight
Astronomical Twilight
Moon
Length of Visible Light
Length of Day
Tomorrow will be .
, % of the Moon is Illuminated

Today's Extremes

State Highs State Lows

Community

WunderPhotos

Upload Photos

1,956,527 photos uploaded!

WunderBlog® & News

Nearby

Air Quality

  Air Quality AQ Index Pollutant
Not available.

Snow Depth

Station Depth Elevation

Earthquake Activity

City Distance Mag. Time & Date
Minimum magnitude displayed is 2.5.

Coastal Water Temperatures

Place Temperature

Stations

Nearby Weather Stations

Station Location Temp. Windchill Dew Point Humidity Wind Precip. Elev Updated Type
                   

Watches & Warnings

There are currently no watches in effect.